Time;durP1;ratioP1;P1;durP2;ratioP2;P2;SDS_P1;SDS_P2;PMS_P1;PMS_P2;Temp;Humidity;BMP_temperature;BMP_pressure;BME280_temperature;BME280_humidity;BME280_pressure;Samples;Min_cycle;Max_cycle;Signal;HPM_P1;HPM_P2
2023/08/30 00:04:47;;;;;;;10.23;6.32;;;;;;;22.95;76.66;98475.91;5017867;28;20105;-96
2023/08/30 00:07:18;;;;;;;6.90;5.70;;;;;;;22.83;76.72;98461.69;4991909;28;20090;-96
2023/08/30 00:09:44;;;;;;;6.22;3.83;;;;;;;23.22;77.66;98538.13;4981185;28;20042;-96
2023/08/30 00:12:11;;;;;;;7.10;4.38;;;;;;;22.92;78.97;98519.19;4981450;28;20034;-96
2023/08/30 00:14:37;;;;;;;12.75;5.95;;;;;;;22.60;78.82;98458.25;4980981;28;20035;-96
2023/08/30 00:17:03;;;;;;;25.70;7.80;;;;;;;23.17;78.58;98534.13;4981411;28;20057;-96
2023/08/30 00:22:50;;;;;;;7.22;4.55;;;;;;;22.82;78.39;98484.19;4994674;28;20112;-96
2023/08/30 00:29:38;;;;;;;9.15;6.60;;;;;;;23.31;77.32;98530.25;4996789;28;20469;-96
2023/08/30 00:42:16;;;;;;;8.18;4.80;;;;;;;22.48;77.75;98493.25;4996497;28;20413;-96
2023/08/30 00:48:04;;;;;;;13.00;5.72;;;;;;;22.67;78.43;98511.34;4977680;28;20493;-95
2023/08/30 00:53:53;;;;;;;9.45;6.28;;;;;;;22.88;77.94;98558.94;4995937;28;20057;-93
2023/08/30 00:56:19;;;;;;;8.55;5.60;;;;;;;22.58;77.57;98522.03;4979455;28;20117;-94
2023/08/30 00:58:45;;;;;;;7.13;4.93;;;;;;;22.20;78.83;98505.41;4978626;28;20038;-93
2023/08/30 01:02:01;;;;;;;11.48;5.95;;;;;;;22.68;78.30;98561.44;4979594;28;20035;-95
2023/08/30 01:08:27;;;;;;;9.00;5.55;;;;;;;22.27;78.37;98487.78;5005057;28;20464;-96
2023/08/30 01:11:17;;;;;;;9.73;6.32;;;;;;;22.30;78.40;98486.69;4981138;28;20455;-92
2023/08/30 01:16:20;;;;;;;;;;;;;;;22.83;77.04;98564.69;5410822;23;20026;-90
2023/08/30 01:18:55;;;;;;;7.45;5.75;;;;;;;22.86;76.90;98556.38;5322520;23;20042;-95
2023/08/30 01:21:42;;;;;;;7.40;6.20;;;;;;;22.58;76.23;98497.84;4954275;29;20039;-96
2023/08/30 01:24:46;;;;;;;5.75;4.75;;;;;;;22.56;75.95;98510.56;4940340;29;20075;-96
2023/08/30 01:30:05;;;;;;;7.18;4.90;;;;;;;22.40;76.89;98522.59;5593743;23;20054;-96
2023/08/30 01:32:33;;;;;;;6.38;4.45;;;;;;;22.61;76.09;98532.53;4981481;28;20038;-92
2023/08/30 01:35:00;;;;;;;8.23;5.22;;;;;;;22.85;76.08;98578.03;4977328;28;20085;-92
2023/08/30 01:37:27;;;;;;;6.85;5.22;;;;;;;22.56;76.18;98543.66;4982104;28;20168;-96
2023/08/30 01:39:56;;;;;;;9.48;6.57;;;;;;;22.59;76.31;98524.59;4980814;28;20561;-96
2023/08/30 01:42:28;;;;;;;8.57;5.75;;;;;;;22.78;76.16;98571.44;4979130;28;20485;-95
2023/08/30 01:44:57;;;;;;;9.07;6.25;;;;;;;22.52;76.11;98556.50;4977435;28;20499;-96
2023/08/30 01:47:25;;;;;;;12.35;6.65;;;;;;;22.43;76.04;98542.94;4984210;28;20038;-96
2023/08/30 01:49:55;;;;;;;11.18;6.90;;;;;;;22.65;76.81;98601.19;4991658;28;20038;-96
2023/08/30 01:52:23;;;;;;;7.82;5.93;;;;;;;22.26;77.71;98553.22;4988704;28;20070;-96
2023/08/30 01:54:51;;;;;;;6.85;4.95;;;;;;;22.27;78.72;98587.16;4965093;28;20098;-96
2023/08/30 01:57:17;;;;;;;10.27;6.97;;;;;;;21.78;78.68;98502.50;4958998;28;20118;-95
2023/08/30 01:59:52;;;;;;;11.25;6.55;;;;;;;22.30;77.67;98557.38;4971676;28;20117;-94
2023/08/30 02:02:17;;;;;;;7.13;5.90;;;;;;;22.23;77.87;98533.81;4976945;28;20089;-95
2023/08/30 02:04:43;;;;;;;9.55;5.57;;;;;;;22.62;77.63;98612.19;4976631;28;20042;-95
2023/08/30 02:07:16;;;;;;;8.25;5.35;;;;;;;22.61;77.47;98595.19;4977246;28;20457;-94
2023/08/30 02:10:00;;;;;;;12.02;6.15;;;;;;;22.60;77.52;98614.13;4976349;28;20365;-93
2023/08/30 02:12:36;;;;;;;10.52;7.00;;;;;;;22.53;77.32;98582.38;4993451;28;20026;-92
2023/08/30 02:15:03;;;;;;;8.07;4.90;;;;;;;22.64;76.76;98607.53;4973720;28;20045;-92
2023/08/30 02:17:30;;;;;;;5.60;4.28;;;;;;;22.43;76.77;98556.38;4978063;28;20077;-95
2023/08/30 02:19:55;;;;;;;7.80;4.65;;;;;;;22.58;76.59;98595.44;4977135;28;20034;-95
2023/08/30 02:22:22;;;;;;;8.50;4.72;;;;;;;22.28;76.92;98561.16;4977208;28;20560;-95
2023/08/30 02:24:47;;;;;;;7.82;5.72;;;;;;;22.30;76.89;98541.28;4953476;28;20044;-96
2023/08/30 02:27:13;;;;;;;5.88;3.75;;;;;;;22.22;76.78;98521.38;4958347;28;20038;-96
2023/08/30 02:29:38;;;;;;;7.13;4.78;;;;;;;22.11;76.95;98539.22;4942537;28;20093;-96
2023/08/30 02:32:05;;;;;;;8.55;5.35;;;;;;;22.32;77.00;98579.63;4959437;28;20055;-94
2023/08/30 02:34:30;;;;;;;8.52;5.28;;;;;;;22.37;76.57;98571.19;4956807;28;20125;-95
2023/08/30 02:36:56;;;;;;;8.05;5.63;;;;;;;22.37;76.45;98584.63;4956834;28;20154;-94
2023/08/30 02:39:24;;;;;;;11.07;5.60;;;;;;;22.33;77.02;98584.00;4956867;28;20026;-96
2023/08/30 02:41:49;;;;;;;9.20;5.18;;;;;;;22.38;76.85;98580.09;5006990;23;20062;-94
2023/08/30 02:44:15;;;;;;;7.45;4.47;;;;;;;22.18;76.68;98556.53;4982646;28;20947;-92
2023/08/30 02:46:41;;;;;;;7.90;5.55;;;;;;;22.14;75.90;98530.06;4992472;28;20030;-93
2023/08/30 02:49:07;;;;;;;4.18;3.08;;;;;;;21.95;76.41;98534.22;4976386;28;20035;-93
2023/08/30 02:51:33;;;;;;;9.13;5.05;;;;;;;21.95;76.99;98563.75;4967951;28;20034;-96
2023/08/30 02:53:59;;;;;;;6.55;4.10;;;;;;;21.69;77.14;98482.66;4965348;28;20113;-96
2023/08/30 02:56:25;;;;;;;5.45;4.95;;;;;;;21.92;77.21;98545.22;4962608;28;20423;-96
2023/08/30 02:58:50;;;;;;;8.25;4.50;;;;;;;22.00;76.72;98545.44;4983187;28;20042;-94
2023/08/30 03:01:16;;;;;;;8.45;4.72;;;;;;;21.94;76.88;98542.41;4958059;28;20497;-93
2023/08/30 03:03:41;;;;;;;6.93;4.57;;;;;;;21.97;76.96;98553.75;4972279;28;20038;-94
2023/08/30 03:06:07;;;;;;;5.88;4.22;;;;;;;21.82;77.15;98539.72;4962681;28;20038;-94
2023/08/30 03:08:32;;;;;;;7.57;4.80;;;;;;;22.10;77.04;98584.97;4976177;28;20030;-94
2023/08/30 03:11:11;;;;;;;8.77;5.82;;;;;;;21.99;77.15;98572.41;4993326;28;20034;-94
2023/08/30 03:13:37;;;;;;;5.28;3.28;;;;;;;21.76;77.28;98550.09;4977100;28;20045;-96
2023/08/30 03:16:13;;;;;;;6.57;3.72;;;;;;;22.16;77.04;98598.75;4977767;28;20041;-95
2023/08/30 03:18:39;;;;;;;9.40;5.20;;;;;;;22.11;77.08;98600.97;4975807;28;20505;-96
2023/08/30 03:21:06;;;;;;;5.30;3.75;;;;;;;22.26;76.51;98615.00;4974027;28;20050;-95
2023/08/30 03:23:32;;;;;;;6.30;3.92;;;;;;;22.06;76.92;98613.91;4974869;28;20553;-94
2023/08/30 03:25:58;;;;;;;6.75;4.18;;;;;;;22.02;76.90;98612.44;4978618;28;20077;-94
2023/08/30 03:28:23;;;;;;;9.55;4.65;;;;;;;22.23;76.34;98623.31;4985261;28;20093;-96
2023/08/30 03:30:49;;;;;;;7.03;4.28;;;;;;;21.85;76.78;98578.88;4959620;28;20027;-95
2023/08/30 03:33:14;;;;;;;6.13;4.00;;;;;;;21.86;76.92;98585.09;4965102;28;20073;-93
2023/08/30 03:35:40;;;;;;;9.13;4.45;;;;;;;22.01;76.78;98613.41;4992300;28;20430;-94
2023/08/30 03:38:05;;;;;;;7.05;4.72;;;;;;;21.92;77.33;98606.09;4974413;28;20072;-94
2023/08/30 03:40:31;;;;;;;5.82;4.05;;;;;;;22.05;77.32;98614.88;4975475;28;20117;-95
2023/08/30 03:42:56;;;;;;;3.92;3.08;;;;;;;22.06;77.75;98627.34;4980522;28;20026;-95
2023/08/30 03:45:22;;;;;;;8.05;5.00;;;;;;;21.97;77.75;98604.75;4979294;28;20030;-94
2023/08/30 03:47:47;;;;;;;5.20;3.25;;;;;;;22.07;77.69;98606.72;4976500;28;20181;-92
2023/08/30 03:50:14;;;;;;;4.45;3.90;;;;;;;22.16;78.22;98630.97;4973175;28;20037;-93
2023/08/30 03:52:39;;;;;;;6.68;4.65;;;;;;;22.16;77.78;98628.31;4974526;28;20443;-91
2023/08/30 03:55:05;;;;;;;9.35;5.50;;;;;;;21.80;78.50;98608.78;4990675;28;20044;-91
2023/08/30 03:57:31;;;;;;;5.07;3.72;;;;;;;21.85;79.21;98656.72;4992475;28;20030;-88
2023/08/30 03:59:56;;;;;;;11.95;4.40;;;;;;;21.88;78.98;98644.91;4984345;28;20034;-95
2023/08/30 04:02:23;;;;;;;7.10;5.15;;;;;;;21.94;78.57;98631.84;4957918;28;20069;-96
2023/08/30 04:04:49;;;;;;;5.60;3.17;;;;;;;22.23;77.46;98660.03;4957089;28;20058;-95
2023/08/30 04:07:15;;;;;;;8.48;5.18;;;;;;;22.07;77.95;98655.03;4955682;28;20063;-95
2023/08/30 04:09:40;;;;;;;6.35;4.80;;;;;;;22.09;78.21;98656.63;4979912;28;20034;-96
2023/08/30 04:17:38;;;;;;;10.35;4.90;;;;;;;21.60;79.43;98604.97;5311852;23;20258;-96
2023/08/30 04:20:04;;;;;;;6.13;3.95;;;;;;;21.90;79.42;98638.41;4992419;28;20035;-95
2023/08/30 04:22:29;;;;;;;5.75;4.82;;;;;;;22.24;78.48;98651.00;4982718;28;20428;-89
2023/08/30 04:24:55;;;;;;;6.88;4.65;;;;;;;22.04;78.28;98602.44;4976715;28;20030;-91
2023/08/30 04:27:20;;;;;;;5.20;3.80;;;;;;;22.18;77.81;98642.47;4989539;28;20496;-93
2023/08/30 04:29:46;;;;;;;11.35;5.65;;;;;;;22.23;77.69;98641.25;4990153;28;20030;-92
2023/08/30 04:32:11;;;;;;;11.75;4.75;;;;;;;22.18;76.97;98629.06;4967932;28;20054;-91
2023/08/30 04:34:37;;;;;;;5.97;4.78;;;;;;;22.31;nan;98642.38;4954849;28;20053;-92
2023/08/30 04:37:03;;;;;;;7.07;5.20;;;;;;;22.51;76.81;98662.25;4953028;28;20088;-93
2023/08/30 04:39:28;;;;;;;7.80;4.80;;;;;;;22.63;76.48;98670.28;4954433;28;20105;-94
2023/08/30 04:41:54;;;;;;;5.35;3.20;;;;;;;22.60;75.42;98647.25;4963449;28;20038;-95
2023/08/30 04:44:24;;;;;;;4.85;3.72;;;;;;;22.88;75.62;98671.84;4972831;28;20074;-93
2023/08/30 04:46:49;;;;;;;7.35;5.45;;;;;;;22.76;74.91;98652.19;5100867;23;20477;-92
2023/08/30 04:49:15;;;;;;;5.43;4.10;;;;;;;22.92;74.52;98673.28;4972206;28;20057;-92
2023/08/30 04:51:40;;;;;;;4.88;3.72;;;;;;;23.01;74.90;98669.84;4963159;28;20031;-94
2023/08/30 04:54:06;;;;;;;7.05;4.18;;;;;;;23.05;74.69;98662.41;4973716;28;20066;-90
2023/08/30 04:56:31;;;;;;;8.93;4.68;;;;;;;23.24;73.72;98664.44;4990795;28;20057;-91
2023/08/30 04:58:57;;;;;;;7.68;4.43;;;;;;;23.20;73.51;98636.94;4957817;28;20039;-93
2023/08/30 05:01:22;;;;;;;6.38;3.67;;;;;;;23.28;72.65;98643.50;4958030;28;20503;-94
2023/08/30 05:03:48;;;;;;;4.82;4.15;;;;;;;23.43;72.57;98658.34;4975474;28;20041;-95
2023/08/30 05:06:16;;;;;;;5.75;3.63;;;;;;;23.55;71.65;98646.53;4971559;28;20425;-94
2023/08/30 05:08:41;;;;;;;5.32;4.07;;;;;;;23.59;71.70;98634.53;4971744;28;20222;-92
2023/08/30 05:11:07;;;;;;;5.72;5.07;;;;;;;23.71;70.95;98627.25;4989558;28;20113;-90
2023/08/30 05:13:32;;;;;;;6.95;5.38;;;;;;;23.87;70.76;98652.88;4970340;28;20496;-89
2023/08/30 05:15:58;;;;;;;10.77;4.10;;;;;;;23.92;70.38;98651.47;4986941;28;20504;-91
2023/08/30 05:18:23;;;;;;;7.45;4.30;;;;;;;24.02;70.47;98658.75;4971832;28;20034;-89
2023/08/30 05:20:49;;;;;;;5.25;3.45;;;;;;;24.15;70.29;98663.94;4988707;28;20093;-91
2023/08/30 05:23:14;;;;;;;7.50;5.05;;;;;;;24.16;69.48;98635.97;4969088;28;20469;-90
2023/08/30 05:25:39;;;;;;;7.85;5.20;;;;;;;24.38;68.32;98643.88;4988541;28;20034;-90
2023/08/30 05:28:05;;;;;;;4.78;3.42;;;;;;;24.42;67.82;98672.28;4971910;28;20046;-91
2023/08/30 05:30:30;;;;;;;4.53;2.75;;;;;;;24.42;67.98;98655.22;4970229;28;20038;-90
2023/08/30 05:32:56;;;;;;;5.70;4.05;;;;;;;24.54;67.27;98669.47;4985879;28;20030;-90
2023/08/30 05:35:21;;;;;;;5.80;3.90;;;;;;;24.82;67.13;98684.03;4985265;28;20830;-91
2023/08/30 05:37:47;;;;;;;4.22;3.15;;;;;;;25.08;66.59;98681.69;4975797;28;20113;-92
2023/08/30 05:40:16;;;;;;;6.65;4.10;;;;;;;24.84;66.07;98650.56;4974268;28;20101;-92
2023/08/30 05:42:42;;;;;;;6.70;3.33;;;;;;;25.04;65.68;98666.78;4992821;28;20034;-90
2023/08/30 05:45:08;;;;;;;8.98;4.90;;;;;;;24.72;66.54;98667.00;4974572;28;20088;-90
2023/08/30 05:47:34;;;;;;;6.20;4.57;;;;;;;24.88;65.35;98640.34;4989743;28;20052;-89
2023/08/30 05:49:59;;;;;;;7.65;4.15;;;;;;;25.31;64.66;98660.69;4992872;28;20044;-90
2023/08/30 05:52:25;;;;;;;10.00;3.22;;;;;;;25.48;63.41;98661.00;4991151;28;20030;-89
2023/08/30 05:54:51;;;;;;;7.57;4.30;;;;;;;25.69;63.26;98674.34;4992534;28;20030;-90
2023/08/30 05:57:16;;;;;;;6.03;3.42;;;;;;;25.79;63.07;98682.41;4991211;28;20060;-90
2023/08/30 05:59:42;;;;;;;7.00;3.97;;;;;;;25.82;62.39;98655.94;4992621;28;20029;-89
2023/08/30 06:02:07;;;;;;;6.22;3.58;;;;;;;25.82;62.74;98660.50;4991241;28;20476;-89
2023/08/30 06:04:33;;;;;;;4.22;3.25;;;;;;;26.07;64.01;98677.97;4988439;28;20068;-89
2023/08/30 06:06:58;;;;;;;6.05;3.08;;;;;;;26.18;63.41;98675.09;4985025;28;20405;-89
2023/08/30 06:09:23;;;;;;;8.30;3.40;;;;;;;25.87;61.15;98669.91;4992051;28;20038;-89
2023/08/30 06:11:49;;;;;;;5.43;3.33;;;;;;;25.95;60.34;98668.28;4987135;28;20026;-86
2023/08/30 06:14:14;;;;;;;7.25;4.07;;;;;;;25.82;61.90;98661.34;4989376;28;20034;-91
2023/08/30 06:16:44;;;;;;;13.73;4.43;;;;;;;25.67;64.55;98669.06;4985959;28;20030;-93
2023/08/30 06:19:10;;;;;;;7.05;3.55;;;;;;;25.76;65.91;98675.44;4958182;28;20037;-89
2023/08/30 06:21:36;;;;;;;7.70;4.30;;;;;;;25.46;66.40;98642.25;4987981;28;20404;-88
2023/08/30 06:24:01;;;;;;;9.18;4.15;;;;;;;25.77;66.49;98704.16;4972658;28;20077;-88
2023/08/30 06:26:27;;;;;;;9.27;4.50;;;;;;;25.61;66.52;98682.28;4972481;28;20436;-89
2023/08/30 06:28:52;;;;;;;7.25;4.80;;;;;;;25.63;68.52;98701.91;4971969;28;20031;-89
2023/08/30 06:31:18;;;;;;;9.23;4.93;;;;;;;25.65;69.49;98681.84;4971800;28;20082;-89
2023/08/30 06:33:44;;;;;;;6.35;3.97;;;;;;;26.17;69.25;98692.31;4972141;28;20030;-89
2023/08/30 06:36:11;;;;;;;7.20;5.20;;;;;;;26.23;68.67;98659.28;4954134;28;20733;-88
2023/08/30 06:38:37;;;;;;;5.20;4.00;;;;;;;26.59;65.47;98704.53;4971950;28;20420;-87
2023/08/30 06:41:02;;;;;;;7.55;4.65;;;;;;;26.38;64.00;98688.53;4972068;28;20031;-87
2023/08/30 06:43:28;;;;;;;5.32;3.33;;;;;;;26.48;62.36;98723.63;4971658;28;20039;-88
2023/08/30 06:45:53;;;;;;;6.35;3.72;;;;;;;26.67;62.99;98722.75;4971302;28;20051;-88
2023/08/30 06:48:19;;;;;;;3.72;2.83;;;;;;;26.69;58.78;98697.22;4970942;28;20381;-87
2023/08/30 06:50:44;;;;;;;5.50;3.75;;;;;;;26.58;59.35;98667.66;4972107;28;20102;-87
2023/08/30 06:53:10;;;;;;;4.30;2.47;;;;;;;27.05;61.37;98724.38;4971303;28;20138;-87
2023/08/30 06:55:36;;;;;;;4.88;3.15;;;;;;;26.94;58.85;98724.56;4971855;28;20027;-86
2023/08/30 06:58:02;;;;;;;3.83;2.95;;;;;;;26.85;59.63;98736.28;4971896;28;20018;-87
2023/08/30 07:00:28;;;;;;;5.65;2.25;;;;;;;26.87;57.80;98721.63;4973319;28;20037;-86
2023/08/30 07:02:53;;;;;;;4.78;2.92;;;;;;;26.77;57.59;98737.03;4978914;28;20073;-91
2023/08/30 07:05:19;;;;;;;3.58;2.92;;;;;;;26.59;60.29;98724.28;4974337;28;20411;-91
2023/08/30 07:07:45;;;;;;;5.28;2.78;;;;;;;26.52;58.36;98717.75;4970231;28;20091;-89
2023/08/30 07:10:10;;;;;;;3.78;2.63;;;;;;;27.04;57.44;98743.47;4971594;28;20185;-94
2023/08/30 07:12:37;;;;;;;5.32;2.85;;;;;;;27.19;57.71;98735.66;4958732;28;20603;-92
2023/08/30 07:15:03;;;;;;;6.45;3.33;;;;;;;26.80;56.71;98688.94;4984140;28;20058;-89
2023/08/30 07:17:29;;;;;;;5.82;3.58;;;;;;;27.18;54.74;98725.88;4975988;28;20139;-93
2023/08/30 07:19:54;;;;;;;5.78;2.90;;;;;;;27.20;56.02;98718.44;4972250;28;20109;-90
2023/08/30 07:22:20;;;;;;;5.95;3.40;;;;;;;27.29;55.94;98693.16;4980481;28;20030;-89
2023/08/30 07:24:46;;;;;;;7.97;3.50;;;;;;;27.58;53.36;98744.41;4984197;28;20034;-94
2023/08/30 07:27:14;;;;;;;6.75;3.33;;;;;;;27.68;53.01;98720.81;4976436;28;20034;-92
2023/08/30 07:29:43;;;;;;;8.18;3.65;;;;;;;27.30;53.96;98719.22;4989401;28;20031;-93
2023/08/30 07:32:09;;;;;;;4.28;3.38;;;;;;;27.98;53.48;98748.50;4985780;28;20035;-88
2023/08/30 07:34:34;;;;;;;4.78;2.80;;;;;;;27.98;54.32;98721.41;4983112;28;20425;-91
2023/08/30 07:37:00;;;;;;;4.45;2.63;;;;;;;28.16;51.08;98723.19;4991743;28;20089;-91
2023/08/30 07:39:26;;;;;;;5.32;3.47;;;;;;;28.04;53.67;98730.75;4992312;28;20430;-96
2023/08/30 07:41:51;;;;;;;4.50;3.30;;;;;;;28.59;52.20;98718.72;4991837;28;20038;-91
2023/08/30 07:44:17;;;;;;;5.90;3.03;;;;;;;28.82;50.46;98716.28;4971699;28;20045;-92
2023/08/30 07:46:43;;;;;;;6.18;3.50;;;;;;;29.11;49.45;98699.59;4971100;28;20134;-92
2023/08/30 07:49:08;;;;;;;7.95;3.47;;;;;;;29.18;48.98;98717.91;4970866;28;20031;-88
2023/08/30 07:51:34;;;;;;;4.90;3.45;;;;;;;29.37;49.89;98714.94;4971485;28;20090;-93
2023/08/30 07:53:59;;;;;;;5.35;3.00;;;;;;;28.97;48.37;98713.81;4971574;28;20541;-93
2023/08/30 07:56:25;;;;;;;6.65;2.65;;;;;;;28.91;50.45;98731.59;4954369;28;20035;-93
2023/08/30 07:58:51;;;;;;;4.05;2.63;;;;;;;28.96;50.65;98727.53;4971746;28;20386;-95
2023/08/30 08:01:16;;;;;;;5.43;2.85;;;;;;;29.25;49.98;98719.00;4972072;28;20019;-94
2023/08/30 08:03:42;;;;;;;4.63;2.35;;;;;;;29.54;48.57;98707.66;4972334;28;20069;-94
2023/08/30 08:06:07;;;;;;;5.45;3.72;;;;;;;29.98;48.87;98714.63;4953884;28;20501;-91
2023/08/30 08:08:33;;;;;;;6.13;3.45;;;;;;;29.97;47.60;98686.63;4971590;28;20473;-94
2023/08/30 08:11:01;;;;;;;4.53;3.03;;;;;;;29.98;45.87;98706.50;4971358;28;20046;-94
2023/08/30 08:13:27;;;;;;;8.30;3.60;;;;;;;30.04;46.81;98692.22;4954389;28;20027;-93
2023/08/30 08:15:56;;;;;;;4.57;2.97;;;;;;;30.78;43.42;98721.94;4969355;28;20049;-94
2023/08/30 08:18:21;;;;;;;4.53;2.83;;;;;;;30.67;44.26;98717.75;4971098;28;20042;-95
2023/08/30 08:20:46;;;;;;;4.93;3.20;;;;;;;30.51;45.38;98699.59;4954220;28;20069;-93
2023/08/30 08:23:12;;;;;;;4.15;3.40;;;;;;;30.79;44.38;98720.94;4971263;28;20077;-95
2023/08/30 08:25:37;;;;;;;6.43;3.70;;;;;;;31.21;44.15;98700.66;4972407;28;20482;-92
2023/08/30 08:28:03;;;;;;;7.53;3.72;;;;;;;31.56;44.47;98701.13;4955236;28;20074;-94
2023/08/30 08:30:29;;;;;;;11.07;3.97;;;;;;;31.46;42.18;98703.19;4971162;28;20355;-92
2023/08/30 08:32:55;;;;;;;7.65;2.97;;;;;;;30.87;42.76;98684.66;4955349;28;20027;-95
2023/08/30 08:35:21;;;;;;;3.92;2.78;;;;;;;30.33;45.73;98699.78;4955941;28;20034;-91
2023/08/30 08:37:46;;;;;;;3.78;2.83;;;;;;;29.88;44.56;98690.38;4969276;28;20145;-92
2023/08/30 08:40:12;;;;;;;4.05;2.50;;;;;;;30.07;43.84;98710.06;4968800;28;20023;-95
2023/08/30 08:42:39;;;;;;;6.55;4.18;;;;;;;30.07;45.56;98663.84;4953042;28;20027;-94
2023/08/30 08:45:06;;;;;;;11.43;3.97;;;;;;;29.76;46.55;98689.00;4956104;28;20520;-95
2023/08/30 08:47:32;;;;;;;3.00;2.42;;;;;;;29.70;46.24;98670.66;4942434;28;20518;-95
2023/08/30 08:50:07;;;;;;;5.05;3.50;;;;;;;30.03;44.53;98684.22;4939699;29;20042;-94
2023/08/30 08:52:33;;;;;;;4.32;3.00;;;;;;;30.09;48.12;98667.22;4934200;29;20039;-94
2023/08/30 08:55:07;;;;;;;3.47;2.83;;;;;;;30.46;43.08;98685.69;4939260;29;20035;-95
2023/08/30 08:57:33;;;;;;;6.07;4.00;;;;;;;30.86;44.21;98683.81;4935017;29;20035;-92
2023/08/30 08:59:58;;;;;;;4.20;2.67;;;;;;;31.00;42.63;98637.81;4933906;29;20561;-94
2023/08/30 09:02:24;;;;;;;16.02;4.22;;;;;;;30.86;41.76;98640.25;4934844;28;20035;-95
2023/08/30 09:04:52;;;;;;;6.47;3.42;;;;;;;30.98;43.73;98672.56;4958510;28;20039;-94
2023/08/30 09:07:19;;;;;;;5.90;3.45;;;;;;;31.10;44.14;98673.84;5104098;23;20351;-93
2023/08/30 09:10:10;;;;;;;7.43;4.30;;;;;;;31.57;41.29;98669.25;5207410;23;20051;-94
2023/08/30 09:12:36;;;;;;;7.75;3.15;;;;;;;31.56;41.42;98664.88;5021094;23;20431;-89
2023/08/30 09:15:04;;;;;;;6.47;3.40;;;;;;;31.44;42.63;98678.03;4992972;28;20042;-93
2023/08/30 09:17:37;;;;;;;4.57;3.38;;;;;;;31.12;44.74;98606.41;4969824;28;20065;-92
2023/08/30 09:20:11;;;;;;;7.30;3.47;;;;;;;31.74;42.66;98649.00;4961116;28;20034;-93
2023/08/30 09:22:58;;;;;;;7.97;3.90;;;;;;;31.80;42.86;98658.31;4968554;28;20038;-94
2023/08/30 09:25:25;;;;;;;4.50;2.88;;;;;;;31.53;41.21;98643.41;4984965;28;20046;-91
2023/08/30 09:27:50;;;;;;;3.97;2.90;;;;;;;31.13;41.74;98618.19;4996597;28;20039;-91
2023/08/30 09:30:50;;;;;;;7.82;3.78;;;;;;;31.30;43.82;98649.69;4976354;28;20043;-91
2023/08/30 09:33:16;;;;;;;5.03;3.15;;;;;;;31.18;42.33;98648.44;4977098;28;20034;-90
2023/08/30 09:35:46;;;;;;;6.40;3.65;;;;;;;31.30;40.64;98636.06;4969479;28;20026;-89
2023/08/30 09:38:19;;;;;;;5.32;3.78;;;;;;;31.36;40.90;98648.97;4959823;28;20497;-96
2023/08/30 09:40:45;;;;;;;6.60;3.80;;;;;;;31.64;39.99;98609.41;4960258;28;20391;-94
2023/08/30 09:43:12;;;;;;;4.88;2.63;;;;;;;31.75;41.93;98617.16;4975195;28;20061;-94
2023/08/30 09:45:40;;;;;;;4.50;3.05;;;;;;;31.60;42.09;98625.28;4961187;28;20534;-91
2023/08/30 09:48:05;;;;;;;4.78;3.15;;;;;;;31.49;44.08;98617.53;4975658;28;20073;-93
2023/08/30 09:50:37;;;;;;;6.05;3.17;;;;;;;31.50;42.95;98601.00;4981008;28;20039;-96
2023/08/30 09:56:35;;;;;;;4.38;2.17;;;;;;;31.43;40.75;98583.69;4999899;28;20073;-94
2023/08/30 09:59:03;;;;;;;6.88;2.28;;;;;;;31.01;41.29;98585.91;4979164;28;20045;-96
2023/08/30 10:01:29;;;;;;;5.20;3.45;;;;;;;31.54;41.74;98613.28;4995127;28;20026;-92
2023/08/30 10:03:58;;;;;;;6.53;3.60;;;;;;;31.25;41.62;98616.72;4979334;28;20039;-95
2023/08/30 10:06:25;;;;;;;4.30;2.72;;;;;;;30.98;40.35;98569.09;4946535;28;20276;-93
2023/08/30 10:08:53;;;;;;;5.22;3.05;;;;;;;31.35;41.61;98613.75;4954201;28;20510;-95
2023/08/30 10:11:24;;;;;;;6.07;3.78;;;;;;;31.39;40.07;98612.34;4976324;28;20038;-96
2023/08/30 10:14:14;;;;;;;10.20;9.13;;;;;;;31.30;40.70;98600.66;4980816;28;20046;-96
2023/08/30 10:16:53;;;;;;;7.35;6.43;;;;;;;31.33;42.35;98611.19;4965642;28;20097;-96
2023/08/30 10:19:29;;;;;;;10.63;5.00;;;;;;;31.06;40.77;98539.06;4969651;28;20035;-96
2023/08/30 10:22:17;;;;;;;4.15;2.58;;;;;;;31.25;41.71;98567.69;4923409;29;20150;-94
2023/08/30 10:25:11;;;;;;;6.13;4.38;;;;;;;31.42;41.78;98603.81;4922066;29;20039;-96
2023/08/30 10:27:46;;;;;;;7.05;3.35;;;;;;;31.29;43.33;98604.41;4931950;29;20044;-91
2023/08/30 10:30:13;;;;;;;4.32;3.13;;;;;;;31.49;44.21;98585.69;4916078;29;20494;-86
2023/08/30 10:32:50;;;;;;;6.97;4.47;;;;;;;31.70;40.27;98575.97;4930702;29;20051;-94
2023/08/30 10:35:18;;;;;;;5.07;2.92;;;;;;;31.64;39.67;98587.59;4931976;29;20545;-93
2023/08/30 10:37:59;;;;;;;5.95;2.80;;;;;;;31.40;40.62;98568.59;4921717;29;20062;-94
2023/08/30 10:40:24;;;;;;;4.72;2.65;;;;;;;31.32;40.69;98565.91;4919005;29;20036;-88
2023/08/30 10:43:03;;;;;;;7.70;4.43;;;;;;;31.23;41.76;98564.28;4931857;29;20111;-88
2023/08/30 10:45:30;;;;;;;8.15;4.03;;;;;;;31.50;41.18;98560.13;4932164;29;20039;-91
2023/08/30 10:47:58;;;;;;;9.23;5.97;;;;;;;31.87;41.18;98571.19;4916241;29;20048;-91
2023/08/30 10:50:31;;;;;;;14.02;6.30;;;;;;;31.46;41.17;98553.34;4892032;29;20054;-96
2023/08/30 10:53:00;;;;;;;6.55;4.82;;;;;;;31.45;41.39;98561.72;4937006;29;20094;-90
2023/08/30 10:55:32;;;;;;;6.45;4.13;;;;;;;31.26;43.48;98593.03;4918882;29;20051;-90
2023/08/30 10:58:00;;;;;;;5.25;3.53;;;;;;;31.24;41.91;98534.16;4930767;29;20050;-88
2023/08/30 11:00:29;;;;;;;4.20;2.60;;;;;;;31.59;40.96;98558.22;4964444;28;20571;-87
2023/08/30 11:02:55;;;;;;;5.72;3.70;;;;;;;31.91;40.55;98565.16;4990663;28;20101;-96
2023/08/30 11:05:33;;;;;;;8.48;4.13;;;;;;;31.99;41.39;98549.75;4988174;28;20417;-96
2023/08/30 11:07:59;;;;;;;5.97;4.30;;;;;;;31.95;40.29;98536.50;5000463;28;20121;-96
2023/08/30 11:10:25;;;;;;;6.63;4.30;;;;;;;32.07;40.41;98552.38;4962411;28;20188;-95
2023/08/30 11:12:51;;;;;;;11.40;4.75;;;;;;;31.74;39.52;98574.56;4992669;28;20030;-95
2023/08/30 11:15:17;;;;;;;7.63;4.22;;;;;;;31.63;40.57;98553.22;4979041;28;20034;-94
2023/08/30 11:17:45;;;;;;;8.10;4.47;;;;;;;31.74;40.32;98569.94;4976946;28;20437;-91
2023/08/30 11:20:16;;;;;;;7.13;3.63;;;;;;;31.84;39.53;98569.69;5003393;28;20116;-96
2023/08/30 11:22:46;;;;;;;6.55;3.42;;;;;;;31.72;40.46;98530.31;4967631;28;20124;-93
2023/08/30 11:25:14;;;;;;;8.23;3.65;;;;;;;32.16;38.58;98551.28;4980297;28;20097;-91
2023/08/30 11:27:50;;;;;;;4.15;3.45;;;;;;;32.12;41.29;98525.44;4973492;28;20485;-96
2023/08/30 11:30:20;;;;;;;5.65;3.45;;;;;;;32.19;38.94;98534.53;4993883;28;20057;-94
2023/08/30 11:32:46;;;;;;;5.28;3.30;;;;;;;32.14;38.19;98523.34;4973149;28;20551;-89
2023/08/30 11:35:11;;;;;;;8.18;3.45;;;;;;;32.31;38.36;98543.06;4954568;28;20046;-90
2023/08/30 11:37:37;;;;;;;6.72;3.60;;;;;;;32.57;37.67;98525.31;4971175;28;20043;-91
2023/08/30 11:43:05;;;;;;;4.53;3.23;;;;;;;32.78;38.36;98541.75;5000755;28;20132;-95
2023/08/30 11:45:34;;;;;;;8.07;3.67;;;;;;;32.67;38.05;98534.06;4987382;28;20340;-95
2023/08/30 11:48:02;;;;;;;5.78;3.70;;;;;;;32.58;37.44;98503.31;4995275;28;20050;-95
2023/08/30 11:50:29;;;;;;;6.07;2.78;;;;;;;32.47;38.14;98512.84;4960995;28;20122;-94
2023/08/30 11:52:58;;;;;;;4.65;2.88;;;;;;;32.60;37.75;98519.47;4977306;28;20062;-95
2023/08/30 11:55:27;;;;;;;5.13;3.20;;;;;;;32.28;39.23;98497.06;4957257;28;20097;-93
2023/08/30 11:57:54;;;;;;;4.97;3.17;;;;;;;32.63;40.35;98511.75;4965491;28;20093;-95
2023/08/30 12:00:20;;;;;;;5.72;3.22;;;;;;;32.58;39.80;98514.22;4959644;28;20041;-94
2023/08/30 12:02:46;;;;;;;6.03;3.00;;;;;;;32.62;39.64;98473.72;4955174;28;20035;-92
2023/08/30 12:05:13;;;;;;;5.22;3.88;;;;;;;32.89;38.60;98487.66;4972645;28;20038;-92
2023/08/30 12:07:40;;;;;;;5.53;3.17;;;;;;;33.07;36.29;98506.31;4973618;28;20212;-95
2023/08/30 12:15:55;;;;;;;6.80;3.63;;;;;;;33.17;38.04;98455.75;5005600;28;20119;-93
2023/08/30 12:18:28;;;;;;;5.22;3.58;;;;;;;32.99;39.45;98458.13;4991164;28;20082;-90
2023/08/30 12:21:00;;;;;;;7.90;3.92;;;;;;;33.48;37.87;98486.47;4995694;28;20028;-94
2023/08/30 12:23:28;;;;;;;5.45;3.72;;;;;;;33.81;37.08;98467.53;4982253;28;20030;-91
2023/08/30 12:26:04;;;;;;;5.13;3.47;;;;;;;33.41;40.45;98486.41;4993392;28;20508;-90
2023/08/30 12:28:41;;;;;;;8.00;3.92;;;;;;;33.47;40.78;98458.28;4990978;28;20034;-90
2023/08/30 12:31:07;;;;;;;4.95;2.75;;;;;;;33.43;36.98;98470.69;4991310;28;20113;-89
2023/08/30 12:33:36;;;;;;;7.10;4.40;;;;;;;33.63;37.43;98454.41;4990621;28;20040;-91